• Join FlightAware (Why Join?)
  • Login
  • US Flag 
04:42AM EDT


 

Airport Tracker/Info


-or-


 

Live Flight TrackerFlight Track Log ✈ ACA831 ✈ 28-Jun-2013 ✈ LSGG / GVA - CYUL

Flight Track Log - Related Links

Times and Time Zones

All times are in EDT time to prevent confusion due to time zone crossing. See the ACA831 flight status page for this flight to view local times or setup timezone preferences in your user account.

Time Position Orientation Groundspeed Altitude Reporting Facility
EDT Latitude Longitude Course Direction KTS MPH feet Rate Location/Type
06:21AM 46.2330 6.1080 33° Northeast 11 13  Level FlightAware
06:21AM 46.2350 6.1110 46° Northeast 13 15 60 Level FlightAware
06:22AM 46.2360 6.1120 35° Northeast 8 9 60 Level FlightAware
06:22AM 46.2360 6.1110 270° West 9 10 60 Level FlightAware
06:22AM 46.2370 6.1110 360° North 8 9 60 Level FlightAware
06:23AM 46.2380 6.1120 35° Northeast 11 13 60 Level FlightAware
06:23AM 46.2390 6.1130 35° Northeast 13 15 60 Level FlightAware
06:23AM 46.2400 6.1150 54° Northeast 14 16 60 Level FlightAware
06:24AM 46.2410 6.1160 35° Northeast 12 14 60 Level FlightAware
06:24AM 46.2420 6.1180 54° Northeast 13 15 120 Level FlightAware
06:25AM 46.2430 6.1200 54° Northeast 15 17 120 Level FlightAware
06:25AM 46.2440 6.1220 54° Northeast 11 13 120 Level FlightAware
06:26AM 46.2450 6.1230 35° Northeast 10 12 120 Level FlightAware
06:28AM 46.3641 5.8270 282° West  Level Estimated
06:28AM 46.2470 6.1260 282° West 1 1  Level FlightAware
06:29AM 46.2480 6.1270 35° Northeast 6 7 180 Level FlightAware
06:32AM 46.4117 5.7193 294° West  Level Estimated
06:33AM 46.4723 5.5668 289° West  Level Estimated
06:33AM 46.2490 6.1270 289° West 4 5  Level FlightAware
06:33AM 46.2500 6.1270 360° North 7 8 660 Level FlightAware
06:34AM 46.2500 6.1260 270° West 12 14 780 Level FlightAware
06:35AM 46.2330 6.1010 225° Southwest 185 213 1,300 2,340 Climbing FlightAware
06:35AM 46.2080 6.0660 224° Southwest 187 215 3,200 2,460 Climbing FlightAware
06:36AM 46.1870 6.0340 227° Southwest 194 223 4,500 2,280 Climbing FlightAware
06:36AM 46.1700 6.0090 226° Southwest 197 227 5,600 2,160 Climbing FlightAware
06:37AM 46.1560 5.9880 226° Southwest 199 229 6,400 1,860 Climbing FlightAware
06:37AM 46.1380 5.9580 229° Southwest 212 244 7,200 1,620 Climbing FlightAware
06:38AM 46.1540 5.9100 296° West 238 274 8,100 1,800 Climbing FlightAware
06:38AM 46.1640 5.9040 337° Northwest 246 283 8,500 2,220 Climbing FlightAware
06:38AM 46.1970 5.8850 338° Northwest 256 295 9,600 1,920 Climbing FlightAware
06:39AM 46.2420 5.8570 337° Northwest 294 338 10,800 1,560 Climbing FlightAware
06:40AM 46.2960 5.8090 328° Northwest 345 397 11,700 1,860 Climbing FlightAware
06:41AM 46.4210 5.6970 328° Northwest 396 456 14,700 2,520 Climbing FlightAware
06:42AM 46.4850 5.6400 328° Northwest 396 456 16,900 2,640 Climbing FlightAware
06:43AM 46.6240 5.5150 328° Northwest 414 476 20,400 2,220 Climbing FlightAware
06:44AM 46.6970 5.4500 329° Northwest 420 483 21,900 1,080 Climbing FlightAware
06:46AM 46.8670 5.2960 328° Northwest 424 488 23,100 1,140 Climbing FlightAware
06:47AM 46.9890 5.1820 300° West 428 493 25,700 1,200 Climbing FlightAware
06:48AM 46.9694 5.0304 300° West  Level Estimated
06:48AM 47.0940 5.0760 326° Northwest 410 472 26,000  Level FlightAware
06:49AM 47.1550 4.9960 318° Northwest 415 478 26,000  Level FlightAware
06:49AM 47.1980 4.9340 316° Northwest 422 486 26,000  Level FlightAware
06:51AM 47.2960 4.7920 316° Northwest 421 484 26,000  Level FlightAware
06:51AM 47.3540 4.7060 315° West 420 483 26,000  Level FlightAware
06:52AM 47.4210 4.6080 315° West 418 481 26,000  Level FlightAware
06:53AM 47.4880 4.5090 315° West 417 480 26,000  Level FlightAware
06:53AM 47.5400 4.4310 315° West 419 482 26,000  Level FlightAware
06:54AM 47.6030 4.3370 315° West 420 483 26,000  Level FlightAware
06:55AM 47.6500 4.2620 313° West 426 490 26,000  Level FlightAware
06:56AM 47.7030 4.1540 306° West 431 496 26,000  Level FlightAware
06:56AM 47.7450 4.0620 304° West 431 496 26,000  Level FlightAware
06:57AM 47.8010 3.9380 304° West 431 496 26,000  Level FlightAware
06:58AM 47.8430 3.8450 304° West 432 497 26,000  Level FlightAware
06:58AM 47.8890 3.7410 303° West 433 498 26,000  Level FlightAware
06:59AM 47.9390 3.6280 303° West 434 499 26,000 780 Level FlightAware
07:02AM 48.0732 3.2484 298° West  Level Estimated
07:03AM 48.1295 3.0875 298° West  Level Estimated
07:03AM 48.2590 3.1890 298° West 407 468 30,100  Level FlightAware
07:04AM 48.1856 2.9262 298° West  Level Estimated
07:04AM 48.3600 3.0580 319° Northwest 401 461 32,000  Level FlightAware
07:05AM 48.4140 2.9760 315° West 416 479 32,000  Level FlightAware
07:06AM 48.4440 2.8520 290° West 443 510 32,000  Level FlightAware
07:06AM 48.4550 2.7410 279° West 452 520 32,000  Level FlightAware
07:08AM 48.4890 2.3940 279° West 445 512 32,000  Level FlightAware
07:09AM 48.5040 2.2550 279° West 444 511 32,000  Level FlightAware
07:10AM 48.5199 2.0981 279° West 472 543 32,000  Level FlightAware UK
07:10AM 48.5292 2.0071 279° West 474 545 32,000  Level FlightAware UK
07:11AM 48.5433 1.8416 277° West 472 543 32,000  Level FlightAware UK
07:12AM 48.5558 1.6941 277° West 474 545 32,000  Level FlightAware UK
07:12AM 48.5550 1.7010 277° West 445 512 32,000  Level FlightAware
07:13AM 48.5683 1.5457 277° West 474 545 32,000  Level FlightAware UK
07:13AM 48.5710 1.5200 277° West 445 512 32,000  Level FlightAware
07:13AM 48.5820 1.3940 278° West 446 513 32,000  Level FlightAware
07:14AM 48.5940 1.2600 278° West 448 516 32,000  Level FlightAware
07:14AM 48.5980 1.2090 277° West 447 514 32,000  Level FlightAware
07:15AM 48.6068 1.1011 277° West 478 550 32,000  Level FlightAware UK
07:17AM 48.6399 0.6918 277° West 476 548 32,000  Level FlightAware UK
07:18AM 48.6517 0.5433 277° West 476 548 32,000  Level FlightAware UK
07:19AM 48.6603 0.4313 277° West 478 550 32,000  Level FlightAware UK
07:19AM 48.6676 0.3377 277° West 476 548 32,000  Level FlightAware UK
07:20AM 48.6749 0.2444 277° West 476 548 32,000  Level FlightAware UK
07:20AM 48.6830 0.1420 277° West 450 518 32,000  Level FlightAware
07:21AM 48.6940 -0.0080 276° West 449 517 32,000  Level FlightAware
07:22AM 48.7024 -0.1299 276° West 478 550 32,000  Level FlightAware UK
07:22AM 48.7040 -0.1420 276° West 449 517 32,000  Level FlightAware
07:22AM 48.7130 -0.2670 276° West 449 517 32,000  Level FlightAware
07:23AM 48.7220 -0.4010 276° West 448 516 32,000  Level FlightAware
07:24AM 48.7310 -0.5240 276° West 448 516 32,000  Level FlightAware
07:25AM 48.7419 -0.6888 276° West 474 545 32,000  Level FlightAware UK
07:25AM 48.7420 -0.6880 276° West 449 517 32,000  Level FlightAware
07:25AM 48.7495 -0.8014 276° West 476 548 32,000  Level FlightAware UK
07:26AM 48.7629 -1.0076 276° West 476 548 32,000  Level FlightAware UK
07:27AM 48.7749 -1.1954 276° West 476 548 32,000  Level FlightAware UK
07:28AM 48.7832 -1.3275 275° West 476 548 32,000  Level FlightAware UK
07:29AM 48.7913 -1.4595 275° West 476 548 32,000  Level FlightAware UK
07:29AM 48.7970 -1.5500 275° West 454 522 32,000  Level FlightAware
07:29AM 48.7970 -1.5547 275° West 476 548 32,000  Level FlightAware UK
07:30AM 48.8026 -1.6499 275° West 476 548 32,000  Level FlightAware UK
07:30AM 48.8040 -1.6800 275° West 455 524 32,000  Level FlightAware
07:31AM 48.8110 -1.8000 275° West 456 525 32,000  Level FlightAware
07:31AM 48.8200 -1.9560 275° West 458 527 32,000  Level FlightAware
07:32AM 48.8275 -2.0885 275° West 478 550 32,000  Level FlightAware UK
07:32AM 48.8270 -2.0850 275° West 458 527 32,000  Level FlightAware
07:33AM 48.8346 -2.2220 275° West 478 550 32,000  Level FlightAware UK
07:33AM 48.8350 -2.2200 275° West 459 528 32,000  Level FlightAware
07:33AM 48.8407 -2.3379 275° West 478 550 32,000  Level FlightAware UK
07:33AM 48.8410 -2.3470 275° West 459 528 32,000  Level FlightAware
07:34AM 48.8490 -2.4890 275° West 459 528 32,000  Level FlightAware
07:35AM 48.8550 -2.6050 275° West 459 528 32,000  Level FlightAware
07:35AM 48.8610 -2.7410 274° West 460 529 32,000  Level FlightAware
07:36AM 48.8680 -2.8780 274° West 460 529 32,000  Level FlightAware
07:36AM 48.8689 -2.8957 274° West 478 550 32,000  Level FlightAware UK
07:37AM 48.8735 -2.9922 274° West 478 550 32,000  Level FlightAware UK
07:37AM 48.8790 -3.1073 274° West 478 550 32,000  Level FlightAware UK
07:37AM 48.8800 -3.1230 274° West 461 531 32,000  Level FlightAware
07:38AM 48.8850 -3.2460 274° West 461 531 32,000  Level FlightAware
07:39AM 48.8920 -3.3920 274° West 460 529 32,000  Level FlightAware
07:39AM 48.8970 -3.5180 274° West 462 532 32,000  Level FlightAware
07:40AM 48.9028 -3.6479 274° West 476 548 32,000  Level FlightAware UK
07:40AM 48.9040 -3.6870 274° West 462 532 32,000  Level FlightAware
07:41AM 48.9100 -3.8300 274° West 464 534 32,000  Level FlightAware
07:42AM 48.9151 -3.9589 274° West 478 550 32,000  Level FlightAware UK
07:42AM 48.9150 -3.9670 274° West 464 534 32,000  Level FlightAware
07:42AM 48.9202 -4.0954 274° West 480 552 32,000  Level FlightAware UK
07:43AM 48.9210 -4.1210 274° West 464 534 32,000  Level FlightAware
07:43AM 48.9254 -4.2316 274° West 480 552 32,000  Level FlightAware UK
07:43AM 48.9260 -4.2580 274° West 465 535 32,000  Level FlightAware
07:44AM 48.9310 -4.3900 273° West 465 535 32,000  Level FlightAware
07:44AM 48.9350 -4.5080 273° West 465 535 32,000  Level FlightAware
07:45AM 48.9395 -4.6421 273° West 478 550 32,000  Level FlightAware UK
07:45AM 48.9400 -4.6570 273° West 465 535 32,000  Level FlightAware
07:46AM 48.9440 -4.7960 273° West 466 536 32,000  Level FlightAware
07:46AM 48.9473 -4.8958 273° West 478 550 32,000  Level FlightAware UK
07:47AM 48.9480 -4.9200 273° West 467 537 32,000  Level FlightAware
07:47AM 48.9520 -5.0670 272° West 467 537 32,000  Level FlightAware
07:48AM 48.9560 -5.1970 273° West 468 539 32,000  Level FlightAware
07:49AM 48.9597 -5.3284 273° West 476 548 32,000  Level FlightAware UK
07:49AM 48.9600 -5.3580 273° West 468 539 32,000  Level FlightAware
07:49AM 48.9640 -5.4770 273° West 468 539 32,000  Level FlightAware
07:50AM 48.9672 -5.6243 273° West 478 550 32,000  Level FlightAware UK
07:51AM 48.9690 -5.7110 272° West 468 539 32,000  Level FlightAware
07:51AM 48.9698 -5.7228 272° West 478 550 32,000  Level FlightAware UK
07:51AM 48.9721 -5.8213 272° West 478 550 32,000  Level FlightAware UK
07:51AM 48.9730 -5.8620 272° West 469 540 32,000  Level FlightAware
07:52AM 48.9760 -5.9940 272° West 469 540 32,000  Level FlightAware
07:53AM 48.9780 -6.1310 272° West 469 540 32,000  Level FlightAware
07:53AM 48.9783 -6.1367 272° West 478 550 32,000  Level FlightAware UK
07:53AM 48.9804 -6.2354 272° West 480 552 32,000  Level FlightAware UK
07:53AM 48.9810 -6.2800 272° West 468 539 32,000  Level FlightAware
07:54AM 48.9830 -6.3950 272° West 468 539 32,000  Level FlightAware
07:55AM 48.9850 -6.5250 272° West 467 537 32,000  Level FlightAware
07:55AM 48.9857 -6.5309 272° West 478 550 32,000  Level FlightAware UK
07:55AM 48.9908 -6.6284 272° West 478 550 32,000  Level FlightAware UK
07:56AM 48.9990 -6.6730 272° West 459 528 32,000  Level FlightAware
07:56AM 49.0220 -6.8110 272° West 459 528 32,000  Level FlightAware
07:56AM 49.0236 -6.8150 272° West 476 548 32,000  Level FlightAware UK
07:57AM 49.0378 -6.9094 272° West 476 548 32,000  Level FlightAware UK
07:57AM 49.0420 -6.9440 272° West 459 528 32,000  Level FlightAware
07:57AM 49.0530 -7.0300 281° West 460 529 32,000  Level FlightAware
07:58AM 49.0700 -7.1620 281° West 460 529 32,000  Level FlightAware
07:59AM 49.0910 -7.3060 283° West 461 531 32,000  Level FlightAware
07:59AM 49.1100 -7.4280 283° West 462 532 32,000  Level FlightAware
08:00AM 49.1290 -7.5490 284° West 464 534 32,000  Level FlightAware
08:01AM 49.1490 -7.6810 284° West 466 536 32,000  Level FlightAware
08:01AM 49.1502 -7.6894 284° West 478 550 32,000  Level FlightAware UK
08:01AM 49.1647 -7.7854 284° West 478 550 32,000  Level FlightAware UK
08:02AM 49.1720 -7.8350 284° West 467 537 32,000  Level FlightAware
08:02AM 49.1920 -7.9720 284° West 469 540 32,000  Level FlightAware
08:02AM 49.1931 -7.9785 284° West 480 552 32,000  Level FlightAware UK
08:03AM 49.2100 -8.0944 284° West 482 555 32,000  Level FlightAware UK
08:03AM 49.2120 -8.1110 284° West 470 541 32,000  Level FlightAware
08:04AM 49.2320 -8.2480 283° West 470 541 32,000  Level FlightAware
08:04AM 49.2510 -8.3770 283° West 470 541 32,000  Level FlightAware
08:04AM 49.2524 -8.3863 283° West 482 555 32,000  Level FlightAware UK
08:05AM 49.2663 -8.4838 283° West 480 552 32,000  Level FlightAware UK
08:05AM 49.2750 -8.5470 283° West 471 542 32,000  Level FlightAware
08:06AM 49.2940 -8.6810 282° West 470 541 32,000  Level FlightAware
08:07AM 49.3080 -8.7810 282° West 470 541 32,000  Level FlightAware
08:07AM 49.3260 -8.9110 282° West 470 541 32,000  Level FlightAware
08:08AM 49.3490 -9.0810 282° West 470 541 32,000 360 Level FlightAware
08:11AM 49.4364 -9.4431 290° West  Level Estimated
08:12AM 49.4782 -9.6188 290° West  Level Estimated
08:13AM 49.5198 -9.7947 290° West  Level Estimated
08:13AM 49.4690 -9.9750 290° West 459 528 34,000  Level FlightAware
08:14AM 49.4860 -10.1110 281° West 459 528 34,000  Level FlightAware
08:14AM 49.4990 -10.2150 281° West 459 528 34,000  Level FlightAware
08:14AM 49.5020 -10.2420 280° West 459 528 34,000  Level FlightAware
08:18AM 49.6300 -10.7988 290° West  Level Estimated
08:19AM 49.6700 -10.9761 289° West  Level Estimated
08:19AM 49.6040 -11.0540 289° West 459 528 34,000  Level FlightAware
08:20AM 49.6260 -11.2260 281° West 459 528 34,000  Level FlightAware
08:21AM 49.6420 -11.3520 281° West 459 528 34,000  Level FlightAware
08:22AM 49.6550 -11.4560 281° West 459 528 34,000  Level FlightAware
08:23AM 49.6710 -11.5840 281° West 459 528 34,000  Level FlightAware
08:25AM 49.7477 -11.9343 289° West  Level Estimated
08:26AM 49.7863 -12.1129 289° West  Level Estimated
08:27AM 49.8247 -12.2917 288° West  Level Estimated
08:28AM 49.8627 -12.4709 288° West  Level Estimated
08:29AM 49.9005 -12.6503 288° West  Level Estimated
08:30AM 49.9380 -12.8300 288° West  Level Estimated
08:31AM 49.9753 -13.0099 288° West  Level Estimated
08:32AM 50.0122 -13.1902 288° West  Level Estimated
08:33AM 50.0489 -13.3707 288° West  Level Estimated
08:34AM 50.0853 -13.5515 287° West  Level Estimated
08:35AM 50.1214 -13.7326 287° West  Level Estimated
08:36AM 50.1572 -13.9139 287° West  Level Estimated
08:37AM 50.1927 -14.0955 287° West  Level Estimated
08:38AM 50.2280 -14.2774 287° West  Level Estimated
08:39AM 50.2630 -14.4595 287° West  Level Estimated
08:40AM 50.2977 -14.6420 287° West  Level Estimated
08:41AM 50.3321 -14.8246 287° West  Level Estimated
08:42AM 50.3662 -15.0076 286° West  Level Estimated
08:43AM 50.4000 -15.1908 286° West  Level Estimated
08:44AM 50.4336 -15.3743 286° West  Level Estimated
08:45AM 50.4668 -15.5580 286° West  Level Estimated
08:46AM 50.4998 -15.7420 286° West  Level Estimated
08:47AM 50.5325 -15.9262 286° West  Level Estimated
08:48AM 50.5648 -16.1107 286° West  Level Estimated
08:49AM 50.5969 -16.2955 285° West  Level Estimated
08:50AM 50.6287 -16.4804 285° West  Level Estimated
08:51AM 50.6602 -16.6657 285° West  Level Estimated
08:52AM 50.6914 -16.8512 285° West  Level Estimated
08:53AM 50.7224 -17.0369 285° West  Level Estimated
08:54AM 50.7530 -17.2229 285° West  Level Estimated
08:55AM 50.7833 -17.4091 285° West  Level Estimated
08:56AM 50.8133 -17.5956 284° West  Level Estimated
08:57AM 50.8430 -17.7823 284° West  Level Estimated
08:58AM 50.8725 -17.9693 284° West  Level Estimated
08:59AM 50.9016 -18.1564 284° West  Level Estimated
09:00AM 50.9304 -18.3438 284° West  Level Estimated
09:01AM 50.9590 -18.5315 284° West  Level Estimated
09:02AM 50.9872 -18.7194 283° West  Level Estimated
09:03AM 51.0151 -18.9075 283° West  Level Estimated
09:04AM 51.0428 -19.0958 283° West  Level Estimated
09:05AM 51.0701 -19.2843 283° West  Level Estimated
09:05AM 50.0000 -20.0000 265° West 463 533 34,000  Level ETMS Enhanced Traffic Management System
09:06AM 51.0971 -19.4731 283° West  Level Estimated
09:07AM 51.1238 -19.6621 283° West  Level Estimated
09:08AM 51.1502 -19.8513 283° West  Level Estimated
09:09AM 51.1763 -20.0407 282° West  Level Estimated
09:10AM 51.2021 -20.2304 282° West  Level Estimated
09:11AM 49.9007 -21.5932 264° West 463 533 34,000  Level FlightAware Transoceanic
09:12AM 49.8867 -21.7919 264° West 463 533 34,000  Level FlightAware Transoceanic
09:13AM 49.8724 -21.9904 264° West 463 533 34,000  Level FlightAware Transoceanic
09:14AM 49.8578 -22.1889 263° West 463 533 34,000  Level FlightAware Transoceanic
09:15AM 49.8428 -22.3872 263° West 463 533 34,000  Level FlightAware Transoceanic
09:16AM 49.8275 -22.5854 263° West 463 533 34,000  Level FlightAware Transoceanic
09:17AM 49.8119 -22.7834 263° West 463 533 34,000  Level FlightAware Transoceanic
09:18AM 49.7959 -22.9814 263° West 463 533 34,000  Level FlightAware Transoceanic
09:19AM 49.7796 -23.1792 263° West 463 533 34,000  Level FlightAware Transoceanic
09:20AM 49.7629 -23.3768 262° West 463 533 34,000  Level FlightAware Transoceanic
09:21AM 49.7459 -23.5744 262° West 463 533 34,000  Level FlightAware Transoceanic
09:22AM 49.7286 -23.7718 262° West 463 533 34,000  Level FlightAware Transoceanic
09:23AM 49.7109 -23.9690 262° West 463 533 34,000  Level FlightAware Transoceanic
09:24AM 49.6929 -24.1661 262° West 463 533 34,000  Level FlightAware Transoceanic
09:25AM 49.6746 -24.3631 262° West 463 533 34,000  Level FlightAware Transoceanic
09:26AM 49.6559 -24.5599 262° West 463 533 34,000  Level FlightAware Transoceanic
09:27AM 49.6370 -24.7565 261° West 463 533 34,000  Level FlightAware Transoceanic
09:28AM 49.6176 -24.9530 261° West 463 533 34,000  Level FlightAware Transoceanic
09:29AM 49.5980 -25.1494 261° West 463 533 34,000  Level FlightAware Transoceanic
09:30AM 49.5780 -25.3456 261° West 463 533 34,000  Level FlightAware Transoceanic
09:31AM 49.5576 -25.5416 261° West 463 533 34,000  Level FlightAware Transoceanic
09:32AM 49.5370 -25.7374 261° West 463 533 34,000  Level FlightAware Transoceanic
09:33AM 49.5160 -25.9331 261° West 463 533 34,000  Level FlightAware Transoceanic
09:34AM 49.4947 -26.1286 260° West 463 533 34,000  Level FlightAware Transoceanic
09:35AM 49.4730 -26.3240 260° West 463 533 34,000  Level FlightAware Transoceanic
09:36AM 49.4511 -26.5192 260° West 463 533 34,000  Level FlightAware Transoceanic
09:37AM 49.4288 -26.7142 260° West 463 533 34,000  Level FlightAware Transoceanic
09:38AM 49.4061 -26.9090 260° West 463 533 34,000  Level FlightAware Transoceanic
09:39AM 49.3832 -27.1036 260° West 463 533 34,000  Level FlightAware Transoceanic
09:40AM 49.3599 -27.2981 260° West 463 533 34,000  Level FlightAware Transoceanic
09:41AM 49.3363 -27.4923 259° West 463 533 34,000  Level FlightAware Transoceanic
09:42AM 49.3124 -27.6864 259° West 463 533 34,000  Level FlightAware Transoceanic
09:43AM 49.2881 -27.8803 259° West 463 533 34,000  Level FlightAware Transoceanic
09:44AM 49.2635 -28.0740 259° West 463 533 34,000  Level FlightAware Transoceanic
09:45AM 49.2386 -28.2675 259° West 463 533 34,000  Level FlightAware Transoceanic
09:46AM 49.2134 -28.4608 259° West 463 533 34,000  Level FlightAware Transoceanic
09:47AM 49.1878 -28.6539 258° West 463 533 34,000  Level FlightAware Transoceanic
09:48AM 49.1620 -28.8469 258° West 463 533 34,000  Level FlightAware Transoceanic
09:49AM 49.1358 -29.0396 258° West 463 533 34,000  Level FlightAware Transoceanic
09:50AM 49.1092 -29.2321 258° West 463 533 34,000  Level FlightAware Transoceanic
09:51AM 49.0824 -29.4244 258° West 463 533 34,000  Level FlightAware Transoceanic
09:52AM 49.0553 -29.6165 258° West 463 533 34,000  Level FlightAware Transoceanic
09:53AM 49.0278 -29.8083 258° West 463 533 34,000  Level FlightAware Transoceanic
09:54AM 49.0488 -29.9911 280° West  Level Estimated
09:55AM 49.0696 -30.1740 280° West  Level Estimated
09:56AM 49.0901 -30.3570 280° West  Level Estimated
09:57AM 49.1102 -30.5402 280° West  Level Estimated
09:58AM 49.1301 -30.7235 279° West  Level Estimated
09:58AM 49.0000 -30.0000 257° West 456 525 34,000  Level ETMS Enhanced Traffic Management System
09:59AM 49.1497 -30.9070 279° West  Level Estimated
10:00AM 49.1690 -31.0906 279° West  Level Estimated
10:01AM 49.1881 -31.2743 279° West  Level Estimated
10:02AM 49.2068 -31.4583 279° West  Level Estimated
10:03AM 49.2252 -31.6423 279° West  Level Estimated
10:04AM 48.7020 -31.8741 256° West 456 525 34,000  Level FlightAware Transoceanic
10:05AM 48.6705 -32.0603 256° West 456 525 34,000  Level FlightAware Transoceanic
10:06AM 48.6387 -32.2462 255° West 456 525 34,000  Level FlightAware Transoceanic
10:07AM 48.6067 -32.4319 255° West 456 525 34,000  Level FlightAware Transoceanic
10:08AM 48.5743 -32.6174 255° West 456 525 34,000  Level FlightAware Transoceanic
10:09AM 48.5416 -32.8026 255° West 456 525 34,000  Level FlightAware Transoceanic
10:10AM 48.5087 -32.9876 255° West 456 525 34,000  Level FlightAware Transoceanic
10:11AM 48.4754 -33.1724 255° West 456 525 34,000  Level FlightAware Transoceanic
10:12AM 48.4419 -33.3568 255° West 456 525 34,000  Level FlightAware Transoceanic
10:13AM 48.4080 -33.5411 254° West 456 525 34,000  Level FlightAware Transoceanic
10:14AM 48.3739 -33.7251 254° West 456 525 34,000  Level FlightAware Transoceanic
10:15AM 48.3395 -33.9089 254° West 456 525 34,000  Level FlightAware Transoceanic
10:16AM 48.3047 -34.0924 254° West 456 525 34,000  Level FlightAware Transoceanic
10:17AM 48.2697 -34.2756 254° West 456 525 34,000  Level FlightAware Transoceanic
10:18AM 48.2344 -34.4586 254° West 456 525 34,000  Level FlightAware Transoceanic
10:19AM 48.1988 -34.6414 254° West 456 525 34,000  Level FlightAware Transoceanic
10:20AM 48.1629 -34.8239 254° West 456 525 34,000  Level FlightAware Transoceanic
10:21AM 48.1268 -35.0061 253° West 456 525 34,000  Level FlightAware Transoceanic
10:22AM 48.0903 -35.1881 253° West 456 525 34,000  Level FlightAware Transoceanic
10:23AM 48.0536 -35.3699 253° West 456 525 34,000  Level FlightAware Transoceanic
10:24AM 48.0165 -35.5513 253° West 456 525 34,000  Level FlightAware Transoceanic
10:25AM 47.9792 -35.7325 253° West 456 525 34,000  Level FlightAware Transoceanic
10:26AM 47.9416 -35.9135 253° West 456 525 34,000  Level FlightAware Transoceanic
10:27AM 47.9037 -36.0942 253° West 456 525 34,000  Level FlightAware Transoceanic
10:28AM 47.8655 -36.2746 252° West 456 525 34,000  Level FlightAware Transoceanic
10:29AM 47.8271 -36.4547 252° West 456 525 34,000  Level FlightAware Transoceanic
10:30AM 47.7883 -36.6346 252° West 456 525 34,000  Level FlightAware Transoceanic
10:31AM 47.7493 -36.8142 252° West 456 525 34,000  Level FlightAware Transoceanic
10:32AM 47.7100 -36.9935 252° West 456 525 34,000  Level FlightAware Transoceanic
10:33AM 47.6705 -37.1726 252° West 456 525 34,000  Level FlightAware Transoceanic
10:34AM 47.6306 -37.3514 252° West 456 525 34,000  Level FlightAware Transoceanic
10:35AM 47.5905 -37.5299 251° West 456 525 34,000  Level FlightAware Transoceanic
10:36AM 47.5501 -37.7082 251° West 456 525 34,000  Level FlightAware Transoceanic
10:37AM 47.5094 -37.8862 251° West 456 525 34,000  Level FlightAware Transoceanic
10:38AM 47.4684 -38.0639 251° West 456 525 34,000  Level FlightAware Transoceanic
10:39AM 47.4272 -38.2413 251° West 456 525 34,000  Level FlightAware Transoceanic
10:40AM 47.3857 -38.4184 251° West 456 525 34,000  Level FlightAware Transoceanic
10:41AM 47.3439 -38.5953 251° West 456 525 34,000  Level FlightAware Transoceanic
10:42AM 47.3019 -38.7719 251° West 456 525 34,000  Level FlightAware Transoceanic
10:43AM 47.2595 -38.9482 250° West 456 525 34,000  Level FlightAware Transoceanic
10:44AM 47.2170 -39.1242 250° West 456 525 34,000  Level FlightAware Transoceanic
10:45AM 47.1741 -39.2999 250° West 456 525 34,000  Level FlightAware Transoceanic
10:46AM 47.1310 -39.4754 250° West 456 525 34,000  Level FlightAware Transoceanic
10:47AM 47.0876 -39.6505 250° West 456 525 34,000  Level FlightAware Transoceanic
10:48AM 47.0439 -39.8254 250° West 456 525 34,000  Level FlightAware Transoceanic
10:49AM 47.0622 -40.0019 279° West  Level Estimated
10:50AM 47.0802 -40.1785 279° West  Level Estimated
10:50AM 47.0000 -40.0000 250° West 457 526 34,000  Level ETMS Enhanced Traffic Management System
10:51AM 47.0979 -40.3552 278° West  Level Estimated
10:52AM 47.1153 -40.5321 278° West  Level Estimated
10:53AM 47.1324 -40.7083 278° West  Level Estimated
10:54AM 47.1492 -40.8846 278° West  Level Estimated
10:55AM 47.1657 -41.0610 278° West  Level Estimated
10:56AM 46.6517 -41.3943 249° West 457 526 34,000  Level FlightAware Transoceanic
10:57AM 46.6070 -41.5674 249° West 457 526 34,000  Level FlightAware Transoceanic
10:58AM 46.5620 -41.7401 249° West 457 526 34,000  Level FlightAware Transoceanic
10:59AM 46.5168 -41.9125 249° West 457 526 34,000  Level FlightAware Transoceanic
11:00AM 46.4713 -42.0847 249° West 457 526 34,000  Level FlightAware Transoceanic
11:01AM 46.4256 -42.2565 249° West 457 526 34,000  Level FlightAware Transoceanic
11:02AM 46.3796 -42.4281 249° West 457 526 34,000  Level FlightAware Transoceanic
11:03AM 46.3333 -42.5994 249° West 457 526 34,000  Level FlightAware Transoceanic
11:04AM 46.2868 -42.7704 248° West 457 526 34,000  Level FlightAware Transoceanic
11:05AM 46.2400 -42.9411 248° West 457 526 34,000  Level FlightAware Transoceanic
11:06AM 46.1930 -43.1115 248° West 457 526 34,000  Level FlightAware Transoceanic
11:07AM 46.1457 -43.2817 248° West 457 526 34,000  Level FlightAware Transoceanic
11:08AM 46.0981 -43.4515 248° West 457 526 34,000  Level FlightAware Transoceanic
11:09AM 46.0504 -43.6210 248° West 457 526 34,000  Level FlightAware Transoceanic
11:10AM 46.0023 -43.7903 248° West 457 526 34,000  Level FlightAware Transoceanic
11:11AM 45.9540 -43.9592 248° West 457 526 34,000  Level FlightAware Transoceanic
11:12AM 45.9055 -44.1279 247° West 457 526 34,000  Level FlightAware Transoceanic
11:13AM 45.8567 -44.2962 247° West 457 526 34,000  Level FlightAware Transoceanic
11:14AM 45.8077 -44.4643 247° West 457 526 34,000  Level FlightAware Transoceanic
11:15AM 45.7584 -44.6321 247° West 457 526 34,000  Level FlightAware Transoceanic
11:16AM 45.7089 -44.7995 247° West 457 526 34,000  Level FlightAware Transoceanic
11:17AM 45.6591 -44.9667 247° West 457 526 34,000  Level FlightAware Transoceanic
11:18AM 45.6091 -45.1336 247° West 457 526 34,000  Level FlightAware Transoceanic
11:19AM 45.5589 -45.3002 247° West 457 526 34,000  Level FlightAware Transoceanic
11:20AM 45.5084 -45.4664 247° West 457 526 34,000  Level FlightAware Transoceanic
11:21AM 45.4576 -45.6324 246° West 457 526 34,000  Level FlightAware Transoceanic
11:22AM 45.4067 -45.7981 246° West 457 526 34,000  Level FlightAware Transoceanic
11:23AM 45.3555 -45.9635 246° West 457 526 34,000  Level FlightAware Transoceanic
11:24AM 45.3040 -46.1286 246° West 457 526 34,000  Level FlightAware Transoceanic
11:25AM 45.2523 -46.2933 246° West 457 526 34,000  Level FlightAware Transoceanic
11:26AM 45.2004 -46.4578 246° West 457 526 34,000  Level FlightAware Transoceanic
11:27AM 45.1483 -46.6220 246° West 457 526 34,000  Level FlightAware Transoceanic
11:28AM 45.0959 -46.7859 246° West 457 526 34,000  Level FlightAware Transoceanic
11:29AM 45.0432 -46.9495 245° Southwest 457 526 34,000  Level FlightAware Transoceanic
11:30AM 44.9904 -47.1127 245° Southwest 457 526 34,000  Level FlightAware Transoceanic
11:31AM 44.9373 -47.2757 245° Southwest 457 526 34,000  Level FlightAware Transoceanic
11:32AM 44.8839 -47.4384 245° Southwest 457 526 34,000  Level FlightAware Transoceanic
11:33AM 44.8304 -47.6007 245° Southwest 457 526 34,000  Level FlightAware Transoceanic
11:34AM 44.7766 -47.7628 245° Southwest 457 526 34,000  Level FlightAware Transoceanic
11:35AM 44.7226 -47.9246 245° Southwest 457 526 34,000  Level FlightAware Transoceanic
11:36AM 44.6684 -48.0860 245° Southwest 457 526 34,000  Level FlightAware Transoceanic
11:37AM 44.6139 -48.2472 245° Southwest 457 526 34,000  Level FlightAware Transoceanic
11:38AM 44.5592 -48.4081 244° Southwest 457 526 34,000  Level FlightAware Transoceanic
11:39AM 44.5043 -48.5686 244° Southwest 457 526 34,000  Level FlightAware Transoceanic
11:40AM 44.4491 -48.7289 244° Southwest 457 526 34,000  Level FlightAware Transoceanic
11:41AM 44.3938 -48.8888 244° Southwest 457 526 34,000  Level FlightAware Transoceanic
11:42AM 44.3382 -49.0485 244° Southwest 457 526 34,000  Level FlightAware Transoceanic
11:42AM 44.5000 -48.5667 245° Southwest 458 527 34,000  Level New York Oceanic (ODAPS)
11:43AM 44.2824 -49.2078 244° Southwest 457 526 34,000  Level FlightAware Transoceanic
11:44AM 44.2263 -49.3669 244° Southwest 457 526 34,000  Level FlightAware Transoceanic
11:45AM 44.1701 -49.5256 244° Southwest 457 526 34,000  Level FlightAware Transoceanic
11:46AM 44.1136 -49.6840 244° Southwest 457 526 34,000  Level FlightAware Transoceanic
11:47AM 44.0569 -49.8422 243° Southwest 457 526 34,000  Level FlightAware Transoceanic
11:48AM 44.0850 -50.0100 283° West  Level Estimated
11:49AM 44.0000 -50.0000 274° West 458 527 34,000  Level FlightAware Transoceanic
11:50AM 44.0088 -50.1654 274° West 458 527 34,000  Level FlightAware Transoceanic
11:50AM 44.0000 -50.0000 274° West 458 527 34,000  Level New York Oceanic (ODAPS)
11:51AM 44.0173 -50.3307 274° West 458 527 34,000  Level FlightAware Transoceanic
11:52AM 44.0256 -50.4962 274° West 458 527 34,000  Level FlightAware Transoceanic
11:53AM 44.0337 -50.6617 274° West 458 527 34,000  Level FlightAware Transoceanic
11:54AM 44.0415 -50.8272 274° West 458 527 34,000  Level FlightAware Transoceanic
11:55AM 44.0491 -50.9928 274° West 458 527 34,000  Level FlightAware Transoceanic
11:56AM 44.0596 -51.2309 273° West 458 527 34,000  Level FlightAware Transoceanic
11:56AM 44.0500 -51.1333 273° West 450 518 34,000  Level Gander Center
11:57AM 44.0670 -51.4070 273° West 458 527 34,000  Level FlightAware Transoceanic
11:57AM 44.0500 -51.3333 270° West 440 506 34,000  Level Gander Center
11:58AM 44.0741 -51.5830 273° West 458 527 34,000  Level FlightAware Transoceanic
11:58AM 44.0500 -51.4833 270° West 450 518 34,000  Level Gander Center
11:59AM 44.0810 -51.7592 273° West 458 527 34,000  Level FlightAware Transoceanic
11:59AM 44.0667 -51.6667 277° West 440 506 34,000  Level Gander Center
12:00PM 44.0877 -51.9353 273° West 458 527 34,000  Level FlightAware Transoceanic
12:00PM 44.0667 -51.8333 270° West 440 506 34,000  Level Gander Center
12:01PM 44.0940 -52.1115 273° West 458 527 34,000  Level FlightAware Transoceanic
12:01PM 44.0833 -52.0000 278° West 450 518 34,000  Level Gander Center
12:02PM 44.0667 -52.1833 263° West 450 518 34,000  Level Gander Center
12:03PM 44.0833 -52.3500 278° West 460 529 34,000  Level Gander Center
12:04PM 44.0833 -52.5333 270° West 450 518 34,000  Level Gander Center
12:05PM 44.1000 -52.6833 279° West 440 506 34,000  Level Gander Center
12:06PM 44.1000 -52.8500 270° West 450 518 34,000  Level Gander Center
12:07PM 44.1167 -53.0333 277° West 450 518 34,000  Level Gander Center
12:08PM 44.1000 -53.2000 262° West 440 506 34,000  Level Gander Center
12:09PM 44.1167 -53.3833 277° West 450 518 34,000  Level Gander Center
12:10PM 44.1333 -53.5500 278° West 440 506 34,000  Level Gander Center
12:11PM 44.1500 -53.7167 278° West 450 518 34,000  Level Gander Center
12:12PM 44.1667 -53.8833 278° West 440 506 34,000  Level Gander Center
12:13PM 44.1833 -54.0500 278° West 430 495 34,000  Level Gander Center
12:14PM 44.2167 -54.2167 286° West 440 506 34,000  Level Gander Center
12:15PM 44.2167 -54.4000 270° West 440 506 34,000 120 Level Gander Center
12:16PM 44.2500 -54.5500 287° West 430 495 34,300 360 Climbing Gander Center
12:17PM 44.2667 -54.7167 278° West 440 506 34,800 480 Climbing Gander Center
12:18PM 44.2833 -54.9000 277° West 430 495 35,300 480 Climbing Gander Center
12:19PM 44.3000 -55.0667 278° West 440 506 35,800 300 Climbing Gander Center
12:20PM 44.3167 -55.2167 279° West 430 495 36,000 60 Climbing Gander Center
12:21PM 44.3333 -55.3833 278° West 440 506 36,000  Level Gander Center
12:26PM 44.4460 -56.3040 278° West 431 496 36,000  Level FlightAware
12:27PM 44.4580 -56.4280 278° West 432 497 36,000  Level FlightAware
12:28PM 44.4670 -56.5390 277° West 432 497 36,000  Level FlightAware
12:28PM 44.4830 -56.6800 279° West 432 497 36,000  Level FlightAware
12:29PM 44.4950 -56.8190 277° West 431 496 36,000  Level FlightAware
12:33PM 44.5590 -57.5230 278° West 437 503 36,000  Level FlightAware
12:34PM 44.5720 -57.6550 278° West 435 501 36,000  Level FlightAware
12:35PM 44.5840 -57.8020 277° West 437 503 36,000  Level FlightAware
12:36PM 44.5990 -57.9740 277° West 435 501 36,000  Level FlightAware
12:37PM 44.6140 -58.1600 277° West 434 499 36,000  Level FlightAware
12:38PM 44.6260 -58.2990 277° West 433 498 36,000  Level FlightAware
12:38PM 44.6320 -58.3780 276° West 433 498 36,000  Level FlightAware
12:39PM 44.6410 -58.4870 277° West 432 497 36,000  Level FlightAware
12:40PM 44.6490 -58.5890 276° West 433 498 36,000  Level FlightAware
12:41PM 44.6590 -58.7190 276° West 432 497 36,000  Level FlightAware
12:41PM 44.6680 -58.8300 277° West 432 497 36,000  Level FlightAware
12:42PM 44.6770 -58.9570 276° West 432 497 36,000  Level FlightAware
12:43PM 44.6860 -59.0730 276° West 433 498 36,000  Level FlightAware
12:43PM 44.6950 -59.1970 276° West 434 499 36,000  Level FlightAware
12:44PM 44.7030 -59.3140 276° West 434 499 36,000  Level FlightAware
12:50PM 44.7660 -60.2340 276° West 434 499 36,000  Level FlightAware
12:51PM 44.7790 -60.4540 275° West 435 501 36,000  Level FlightAware
12:52PM 44.7870 -60.5710 276° West 436 502 36,000  Level FlightAware
12:52PM 44.7940 -60.6930 275° West 436 502 36,000  Level FlightAware
12:53PM 44.8020 -60.8330 275° West 437 503 36,000  Level FlightAware
12:54PM 44.8090 -60.9540 275° West 437 503 36,000  Level FlightAware
12:56PM 44.8270 -61.2780 275° West 436 502 36,000  Level FlightAware
12:57PM 44.8320 -61.3770 274° West 436 502 36,000  Level FlightAware
12:57PM 44.8380 -61.5000 274° West 436 502 36,000  Level FlightAware
12:58PM 44.8420 -61.5860 274° West 436 502 36,000  Level FlightAware
12:59PM 44.8480 -61.7000 274° West 436 502 36,000  Level FlightAware
12:59PM 44.8520 -61.7870 274° West 436 502 36,000  Level FlightAware
01:02PM 44.8710 -62.1730 274° West 436 502 36,000  Level FlightAware
01:03PM 44.8770 -62.2890 274° West 436 502 36,000  Level FlightAware
01:04PM 44.8820 -62.3950 274° West 436 502 36,000  Level FlightAware
01:04PM 44.8860 -62.4860 274° West 436 502 36,000  Level FlightAware
01:08PM 44.9200 -63.3080 274° West 443 510 36,000  Level FlightAware
01:08PM 44.9250 -63.4060 274° West 443 510 36,000  Level FlightAware
01:09PM 44.9450 -63.5470 281° West 447 514 36,000  Level FlightAware
01:10PM 44.9600 -63.6440 282° West 449 517 36,000  Level FlightAware
01:12PM 45.0040 -63.9450 282° West 447 514 36,000  Level FlightAware
01:12PM 45.0240 -64.0740 282° West 445 512 36,000  Level FlightAware
01:13PM 45.0510 -64.2550 282° West 444 511 36,000  Level FlightAware
01:14PM 45.0670 -64.3650 282° West 443 510 36,000  Level FlightAware
01:14PM 45.0780 -64.4420 281° West 442 509 36,000  Level FlightAware
01:15PM 45.0833 -64.5833 281° West 440 506 36,000  Level Moncton Center
01:16PM 45.1000 -64.7500 278° West 440 506 36,000  Level Moncton Center
01:17PM 45.1333 -64.9167 286° West 440 506 36,000  Level Moncton Center
01:23PM 45.2750 -65.8750 286° West 441 507 36,000  Level FlightAware
01:24PM 45.2930 -66.0150 280° West 439 505 36,000  Level FlightAware
01:24PM 45.3100 -66.1470 280° West 438 504 36,000  Level FlightAware
01:26PM 45.3340 -66.3350 280° West 436 502 36,000  Level FlightAware
01:26PM 45.3333 -66.4500 280° West 430 495 36,000  Level Moncton Center
01:27PM 45.3500 -66.6333 277° West 430 495 36,000  Level Moncton Center
01:33PM 45.4800 -67.5470 277° West 434 499 36,000  Level FlightAware
01:33PM 45.4930 -67.6660 279° West 436 502 36,000  Level FlightAware
01:34PM 45.5040 -67.7630 279° West 436 502 36,000  Level FlightAware
01:37PM 45.5570 -68.2360 279° West 449 517 36,000  Level FlightAware
01:37PM 45.5710 -68.3690 279° West 436 502 36,000  Level FlightAware
01:38PM 45.5810 -68.4580 279° West 429 494 36,000  Level FlightAware
01:39PM 45.6000 -68.6020 281° West 431 496 36,000  Level FlightAware
01:39PM 45.6170 -68.7090 283° West 433 498 36,000  Level FlightAware
01:40PM 45.6260 -68.7720 282° West 434 499 36,000  Level FlightAware
01:42PM 45.6850 -69.1540 283° West 436 502 36,000  Level FlightAware
01:43PM 45.7060 -69.2950 282° West 442 509 36,000  Level FlightAware
01:43PM 45.7170 -69.3680 282° West 446 513 36,000  Level FlightAware
01:44PM 45.7350 -69.4970 281° West 451 519 36,000  Level FlightAware
01:46PM 45.7890 -69.8650 282° West 460 529 36,000  Level FlightAware
01:47PM 45.8080 -70.0000 281° West 461 531 36,000  Level FlightAware
01:48PM 45.8250 -70.1180 282° West 461 531 36,000  Level FlightAware
01:48PM 45.8440 -70.2530 281° West 460 529 36,000  Level FlightAware
01:49PM 45.8580 -70.3580 281° West 460 529 36,000  Level FlightAware
01:51PM 45.9070 -70.7140 281° West 454 522 36,000  Level FlightAware
01:52PM 45.9210 -70.8290 280° West 445 512 36,000  Level FlightAware
01:52PM 45.9160 -70.9580 267° West 433 498 36,000  Level FlightAware
01:53PM 45.9080 -71.0580 263° West 432 497 36,000  Level FlightAware
01:54PM 45.8960 -71.1860 262° West 431 496 36,000 -300 Level FlightAware
01:54PM 45.8860 -71.2980 263° West 433 498 35,600 -960 Descending FlightAware
01:55PM 45.8720 -71.4560 263° West 437 503 34,500 -1,140 Descending FlightAware
01:56PM 45.8640 -71.5410 262° West 435 501 34,000 -900 Descending FlightAware
01:57PM 45.8520 -71.6690 262° West 430 495 33,400 -960 Descending FlightAware
01:57PM 45.8440 -71.7530 262° West 432 497 32,800 -1,560 Descending FlightAware
01:58PM 45.8300 -71.9080 263° West 428 493 31,200 -2,760 Descending FlightAware
01:59PM 45.8200 -72.0080 262° West 445 512 28,700 -4,080 Descending FlightAware
01:59PM 45.8060 -72.1590 262° West 460 529 25,500 -2,940 Descending FlightAware
02:00PM 45.7960 -72.2610 262° West 436 502 24,600 -1,200 Descending FlightAware
02:01PM 45.7770 -72.4530 262° West 409 471 23,500 -1,020 Descending FlightAware
02:02PM 45.7650 -72.5730 262° West 418 481 22,700 -1,080 Descending FlightAware
02:03PM 45.7540 -72.6830 262° West 416 479 22,000 -1,200 Descending FlightAware
02:03PM 45.7420 -72.8020 262° West 404 465 21,000 -2,100 Descending FlightAware
02:04PM 45.7290 -72.9230 261° West 405 466 18,900 -2,820 Descending FlightAware
02:05PM 45.7200 -73.0150 262° West 404 465 17,300 -2,640 Descending FlightAware
02:05PM 45.7060 -73.1180 259° West 392 451 15,600 -2,580 Descending FlightAware
02:06PM 45.6680 -73.2150 241° Southwest 382 440 13,700 -2,220 Descending FlightAware
02:07PM 45.6290 -73.3060 239° Southwest 365 420 12,300 -1,920 Descending FlightAware
02:07PM 45.5920 -73.3880 237° Southwest 326 375 11,000 -1,740 Descending FlightAware
02:08PM 45.5560 -73.4500 230° Southwest 292 336 10,000 -1,380 Descending FlightAware
02:09PM 45.5270 -73.4890 223° Southwest 288 331 9,400 -1,320 Descending FlightAware
02:09PM 45.5020 -73.5220 223° Southwest 284 327 8,800 -1,380 Descending FlightAware
02:09PM 45.4830 -73.5470 223° Southwest 281 323 8,400 -1,200 Descending FlightAware
02:10PM 45.4490 -73.5910 222° Southwest 268 308 7,700 -1,200 Descending FlightAware
02:10PM 45.4220 -73.6280 224° Southwest 266 306 7,100 -1,320 Descending FlightAware
02:12PM 45.3640 -73.7030 222° Southwest 259 298 5,600 -1,380 Descending FlightAware
02:12PM 45.3400 -73.7340 222° Southwest 259 298 5,000 -1,080 Descending FlightAware
02:13PM 45.3120 -73.7720 224° Southwest 244 281 4,600 -780 Descending FlightAware
02:13PM 45.2920 -73.7970 221° Southwest 226 260 4,300 -1,020 Descending FlightAware
02:14PM 45.2720 -73.8330 232° Southwest 240 276 3,700 -900 Descending FlightAware
02:14PM 45.2790 -73.8790 282° West 240 276 3,400 -300 Descending FlightAware
02:14PM 45.2870 -73.8920 311° West 232 267 3,500 300 Climbing FlightAware
02:14PM 45.2930 -73.9000 317° Northwest 224 258 3,500 -600 Level FlightAware
02:19PM 45.4440 -73.7880 27° Northeast 130 150 1,100 -660 Descending FlightAware
02:19PM 45.4650 -73.7600 43° Northeast 136 157 600 -960 Descending FlightAware
02:20PM 45.4740 -73.7480 43° Northeast 60 69 -1,200 Descending FlightAware